sensor_id;sensor_type;location;lat;lon;timestamp;pressure;altitude;pressure_sealevel;temperature;humidity
7660;BME280;3872;47.902;8.162;2023-11-21T00:01:06;91323.88;;;11.03;85.09
7660;BME280;3872;47.902;8.162;2023-11-21T00:03:34;91325.00;;;10.37;92.10
7660;BME280;3872;47.902;8.162;2023-11-21T00:06:02;91322.47;;;10.97;87.47
7660;BME280;3872;47.902;8.162;2023-11-21T00:08:30;91328.19;;;10.82;88.17
7660;BME280;3872;47.902;8.162;2023-11-21T00:10:57;91320.31;;;10.90;87.09
7660;BME280;3872;47.902;8.162;2023-11-21T00:13:25;91317.56;;;10.39;86.87
7660;BME280;3872;47.902;8.162;2023-11-21T00:15:52;91312.22;;;10.61;90.26
7660;BME280;3872;47.902;8.162;2023-11-21T00:18:19;91310.41;;;10.79;88.15
7660;BME280;3872;47.902;8.162;2023-11-21T00:20:45;91305.13;;;10.70;88.54
7660;BME280;3872;47.902;8.162;2023-11-21T00:23:13;91309.75;;;10.82;88.47
7660;BME280;3872;47.902;8.162;2023-11-21T00:25:40;91313.16;;;10.56;88.81
7660;BME280;3872;47.902;8.162;2023-11-21T00:28:06;91319.31;;;10.60;92.55
7660;BME280;3872;47.902;8.162;2023-11-21T00:30:33;91312.22;;;10.70;88.78
7660;BME280;3872;47.902;8.162;2023-11-21T00:33:00;91308.22;;;10.81;85.37
7660;BME280;3872;47.902;8.162;2023-11-21T00:35:26;91313.00;;;10.87;85.96
7660;BME280;3872;47.902;8.162;2023-11-21T00:37:53;91305.13;;;10.87;86.21
7660;BME280;3872;47.902;8.162;2023-11-21T00:40:21;91305.41;;;10.51;91.41
7660;BME280;3872;47.902;8.162;2023-11-21T00:42:47;91300.63;;;10.88;88.66
7660;BME280;3872;47.902;8.162;2023-11-21T00:45:14;91296.59;;;11.16;84.10
7660;BME280;3872;47.902;8.162;2023-11-21T00:47:41;91297.22;;;10.70;87.81
7660;BME280;3872;47.902;8.162;2023-11-21T00:50:08;91300.94;;;11.04;84.10
7660;BME280;3872;47.902;8.162;2023-11-21T00:52:35;91293.53;;;10.23;94.72
7660;BME280;3872;47.902;8.162;2023-11-21T00:55:02;91292.03;;;10.39;93.93
7660;BME280;3872;47.902;8.162;2023-11-21T00:57:31;91294.22;;;10.37;94.51
7660;BME280;3872;47.902;8.162;2023-11-21T00:59:57;91296.16;;;10.71;88.27
7660;BME280;3872;47.902;8.162;2023-11-21T01:02:24;91293.53;;;11.06;85.66
7660;BME280;3872;47.902;8.162;2023-11-21T01:04:51;91298.97;;;11.01;84.96
7660;BME280;3872;47.902;8.162;2023-11-21T01:07:17;91292.59;;;11.02;83.98
7660;BME280;3872;47.902;8.162;2023-11-21T01:09:45;91308.38;;;11.02;84.26
7660;BME280;3872;47.902;8.162;2023-11-21T01:12:12;91299.25;;;10.90;85.47
7660;BME280;3872;47.902;8.162;2023-11-21T01:14:40;91306.06;;;10.66;86.91
7660;BME280;3872;47.902;8.162;2023-11-21T01:17:07;91302.63;;;10.56;86.83
7660;BME280;3872;47.902;8.162;2023-11-21T01:19:33;91307.41;;;10.54;88.13
7660;BME280;3872;47.902;8.162;2023-11-21T01:22:01;91305.06;;;10.36;87.26
7660;BME280;3872;47.902;8.162;2023-11-21T01:24:27;91308.00;;;10.43;87.90
7660;BME280;3872;47.902;8.162;2023-11-21T01:26:54;91309.22;;;10.37;88.82
7660;BME280;3872;47.902;8.162;2023-11-21T01:29:20;91305.94;;;10.31;89.75
7660;BME280;3872;47.902;8.162;2023-11-21T01:31:49;91301.13;;;10.25;85.58
7660;BME280;3872;47.902;8.162;2023-11-21T01:34:17;91310.94;;;10.10;88.20
7660;BME280;3872;47.902;8.162;2023-11-21T01:36:45;91308.88;;;10.21;86.70
7660;BME280;3872;47.902;8.162;2023-11-21T01:39:12;91314.44;;;10.19;88.00
7660;BME280;3872;47.902;8.162;2023-11-21T01:41:41;91303.31;;;10.31;85.18
7660;BME280;3872;47.902;8.162;2023-11-21T01:44:09;91306.56;;;9.97;89.32
7660;BME280;3872;47.902;8.162;2023-11-21T01:46:36;91304.28;;;10.35;85.30
7660;BME280;3872;47.902;8.162;2023-11-21T01:49:04;91303.88;;;9.49;97.58
7660;BME280;3872;47.902;8.162;2023-11-21T01:51:31;91297.19;;;10.05;89.81
7660;BME280;3872;47.902;8.162;2023-11-21T01:53:58;91296.78;;;9.89;92.99
7660;BME280;3872;47.902;8.162;2023-11-21T01:56:25;91292.94;;;9.87;90.53
7660;BME280;3872;47.902;8.162;2023-11-21T01:58:52;91286.53;;;9.70;91.92
7660;BME280;3872;47.902;8.162;2023-11-21T02:01:19;91294.22;;;9.98;90.71
7660;BME280;3872;47.902;8.162;2023-11-21T02:03:45;91288.91;;;10.20;88.17
7660;BME280;3872;47.902;8.162;2023-11-21T02:06:13;91288.19;;;9.97;88.23
7660;BME280;3872;47.902;8.162;2023-11-21T02:08:40;91294.09;;;10.11;85.96
7660;BME280;3872;47.902;8.162;2023-11-21T02:11:11;91295.03;;;10.07;84.42
7660;BME280;3872;47.902;8.162;2023-11-21T02:13:39;91299.53;;;9.75;88.50
7660;BME280;3872;47.902;8.162;2023-11-21T02:16:09;91296.03;;;9.89;86.14
7660;BME280;3872;47.902;8.162;2023-11-21T02:18:35;91304.53;;;9.86;88.06
7660;BME280;3872;47.902;8.162;2023-11-21T02:21:04;91303.13;;;9.88;87.90
7660;BME280;3872;47.902;8.162;2023-11-21T02:23:32;91301.66;;;10.04;84.94
7660;BME280;3872;47.902;8.162;2023-11-21T02:25:59;91295.78;;;9.68;87.28
7660;BME280;3872;47.902;8.162;2023-11-21T02:28:29;91297.50;;;9.41;92.74
7660;BME280;3872;47.902;8.162;2023-11-21T02:30:56;91296.16;;;8.86;99.77
7660;BME280;3872;47.902;8.162;2023-11-21T02:33:24;91296.22;;;8.72;100.00
7660;BME280;3872;47.902;8.162;2023-11-21T02:35:51;91297.81;;;8.82;100.00
7660;BME280;3872;47.902;8.162;2023-11-21T02:38:20;91299.56;;;8.86;99.63
7660;BME280;3872;47.902;8.162;2023-11-21T02:40:48;91291.88;;;9.12;96.33
7660;BME280;3872;47.902;8.162;2023-11-21T02:43:14;91289.63;;;9.72;89.83
7660;BME280;3872;47.902;8.162;2023-11-21T02:45:41;91296.34;;;9.34;93.96
7660;BME280;3872;47.902;8.162;2023-11-21T02:48:08;91297.38;;;9.02;100.00
7660;BME280;3872;47.902;8.162;2023-11-21T02:50:34;91286.41;;;9.45;93.27
7660;BME280;3872;47.902;8.162;2023-11-21T02:53:02;91290.72;;;8.82;100.00
7660;BME280;3872;47.902;8.162;2023-11-21T02:55:31;91287.34;;;8.32;100.00
7660;BME280;3872;47.902;8.162;2023-11-21T02:58:01;91277.38;;;9.68;96.39
7660;BME280;3872;47.902;8.162;2023-11-21T03:00:29;91274.97;;;9.49;95.35
7660;BME280;3872;47.902;8.162;2023-11-21T03:02:56;91279.94;;;9.51;95.75
7660;BME280;3872;47.902;8.162;2023-11-21T03:05:22;91275.41;;;9.73;92.37
7660;BME280;3872;47.902;8.162;2023-11-21T03:07:49;91274.03;;;9.76;93.07
7660;BME280;3872;47.902;8.162;2023-11-21T03:10:16;91274.97;;;9.49;96.55
7660;BME280;3872;47.902;8.162;2023-11-21T03:12:42;91281.16;;;9.45;97.50
7660;BME280;3872;47.902;8.162;2023-11-21T03:15:11;91275.41;;;9.42;99.27
7660;BME280;3872;47.902;8.162;2023-11-21T03:17:38;91271.69;;;9.66;97.70
7660;BME280;3872;47.902;8.162;2023-11-21T03:20:05;91281.00;;;9.50;96.77
7660;BME280;3872;47.902;8.162;2023-11-21T03:22:36;91287.63;;;8.44;100.00
7660;BME280;3872;47.902;8.162;2023-11-21T03:25:03;91283.66;;;9.27;100.00
7660;BME280;3872;47.902;8.162;2023-11-21T03:27:30;91275.66;;;9.32;100.00
7660;BME280;3872;47.902;8.162;2023-11-21T03:29:56;91281.84;;;9.67;98.34
7660;BME280;3872;47.902;8.162;2023-11-21T03:32:24;91277.97;;;8.89;100.00
7660;BME280;3872;47.902;8.162;2023-11-21T03:34:55;91275.03;;;8.33;100.00
7660;BME280;3872;47.902;8.162;2023-11-21T03:37:23;91278.47;;;8.91;100.00
7660;BME280;3872;47.902;8.162;2023-11-21T03:39:50;91271.38;;;9.45;100.00
7660;BME280;3872;47.902;8.162;2023-11-21T03:42:17;91269.97;;;9.70;100.00
7660;BME280;3872;47.902;8.162;2023-11-21T03:44:43;91264.53;;;9.66;100.00
7660;BME280;3872;47.902;8.162;2023-11-21T03:47:10;91271.16;;;9.33;100.00
7660;BME280;3872;47.902;8.162;2023-11-21T03:49:38;91274.47;;;9.16;100.00
7660;BME280;3872;47.902;8.162;2023-11-21T03:52:05;91283.94;;;8.45;100.00
7660;BME280;3872;47.902;8.162;2023-11-21T03:54:33;91274.94;;;8.60;100.00
7660;BME280;3872;47.902;8.162;2023-11-21T03:56:59;91277.56;;;9.18;100.00
7660;BME280;3872;47.902;8.162;2023-11-21T03:59:26;91273.16;;;9.89;100.00
7660;BME280;3872;47.902;8.162;2023-11-21T04:01:55;91268.53;;;9.55;100.00
7660;BME280;3872;47.902;8.162;2023-11-21T04:04:22;91272.59;;;9.17;100.00
7660;BME280;3872;47.902;8.162;2023-11-21T04:06:50;91263.78;;;9.35;100.00
7660;BME280;3872;47.902;8.162;2023-11-21T04:09:17;91267.34;;;9.70;100.00
7660;BME280;3872;47.902;8.162;2023-11-21T04:11:44;91256.34;;;9.06;100.00
7660;BME280;3872;47.902;8.162;2023-11-21T04:14:11;91258.59;;;9.52;100.00
7660;BME280;3872;47.902;8.162;2023-11-21T04:16:38;91263.09;;;8.62;100.00
7660;BME280;3872;47.902;8.162;2023-11-21T04:19:04;91273.22;;;8.55;100.00
7660;BME280;3872;47.902;8.162;2023-11-21T04:21:31;91278.13;;;8.35;100.00
7660;BME280;3872;47.902;8.162;2023-11-21T04:24:00;91266.91;;;9.46;100.00
7660;BME280;3872;47.902;8.162;2023-11-21T04:26:26;91262.91;;;9.48;99.69
7660;BME280;3872;47.902;8.162;2023-11-21T04:28:53;91272.25;;;9.32;99.11
7660;BME280;3872;47.902;8.162;2023-11-21T04:31:19;91275.31;;;9.56;96.57
7660;BME280;3872;47.902;8.162;2023-11-21T04:33:46;91278.03;;;9.73;92.26
7660;BME280;3872;47.902;8.162;2023-11-21T04:36:12;91275.09;;;9.75;91.29
7660;BME280;3872;47.902;8.162;2023-11-21T04:38:39;91267.75;;;9.55;93.24
7660;BME280;3872;47.902;8.162;2023-11-21T04:41:07;91273.63;;;9.52;93.39
7660;BME280;3872;47.902;8.162;2023-11-21T04:43:34;91277.53;;;9.63;92.13
7660;BME280;3872;47.902;8.162;2023-11-21T04:46:01;91279.13;;;9.72;90.27
7660;BME280;3872;47.902;8.162;2023-11-21T04:48:28;91291.72;;;9.62;91.88
7660;BME280;3872;47.902;8.162;2023-11-21T04:50:54;91289.28;;;9.65;91.09
7660;BME280;3872;47.902;8.162;2023-11-21T04:53:21;91300.13;;;9.19;95.75
7660;BME280;3872;47.902;8.162;2023-11-21T04:55:48;91303.53;;;9.42;94.00
7660;BME280;3872;47.902;8.162;2023-11-21T04:58:15;91292.78;;;9.08;97.76
7660;BME280;3872;47.902;8.162;2023-11-21T05:00:42;91303.31;;;9.38;95.72
7660;BME280;3872;47.902;8.162;2023-11-21T05:03:09;91305.31;;;9.33;94.64
7660;BME280;3872;47.902;8.162;2023-11-21T05:05:36;91301.84;;;8.79;100.00
7660;BME280;3872;47.902;8.162;2023-11-21T05:08:03;91312.47;;;9.41;97.42
7660;BME280;3872;47.902;8.162;2023-11-21T05:10:29;91309.78;;;9.10;100.00
7660;BME280;3872;47.902;8.162;2023-11-21T05:12:56;91304.03;;;9.83;92.52
7660;BME280;3872;47.902;8.162;2023-11-21T05:15:25;91305.03;;;9.96;89.77
7660;BME280;3872;47.902;8.162;2023-11-21T05:17:52;91306.50;;;9.80;90.57
7660;BME280;3872;47.902;8.162;2023-11-21T05:20:20;91303.88;;;9.80;92.10
7660;BME280;3872;47.902;8.162;2023-11-21T05:22:47;91303.59;;;9.59;94.60
7660;BME280;3872;47.902;8.162;2023-11-21T05:25:14;91304.34;;;9.82;92.10
7660;BME280;3872;47.902;8.162;2023-11-21T05:27:42;91308.97;;;9.76;93.57
7660;BME280;3872;47.902;8.162;2023-11-21T05:30:09;91317.91;;;9.45;98.18
7660;BME280;3872;47.902;8.162;2023-11-21T05:32:38;91316.09;;;9.54;98.79
7660;BME280;3872;47.902;8.162;2023-11-21T05:35:05;91311.63;;;9.32;100.00
7660;BME280;3872;47.902;8.162;2023-11-21T05:37:35;91311.09;;;9.66;99.03
7660;BME280;3872;47.902;8.162;2023-11-21T05:40:05;91311.22;;;8.94;100.00
7660;BME280;3872;47.902;8.162;2023-11-21T05:42:32;91307.69;;;9.43;100.00
7660;BME280;3872;47.902;8.162;2023-11-21T05:44:58;91313.53;;;9.40;100.00
7660;BME280;3872;47.902;8.162;2023-11-21T05:47:36;91321.91;;;9.42;100.00
7660;BME280;3872;47.902;8.162;2023-11-21T05:50:06;91319.31;;;9.73;96.44
7660;BME280;3872;47.902;8.162;2023-11-21T05:52:35;91316.78;;;9.99;92.60
7660;BME280;3872;47.902;8.162;2023-11-21T05:55:02;91308.81;;;9.81;94.12
7660;BME280;3872;47.902;8.162;2023-11-21T05:57:30;91314.00;;;9.64;100.00
7660;BME280;3872;47.902;8.162;2023-11-21T05:59:56;91326.28;;;9.77;97.08
7660;BME280;3872;47.902;8.162;2023-11-21T06:02:23;91327.16;;;10.04;93.96
7660;BME280;3872;47.902;8.162;2023-11-21T06:04:51;91323.50;;;9.52;99.93
7660;BME280;3872;47.902;8.162;2023-11-21T06:07:19;91329.28;;;9.62;98.40
7660;BME280;3872;47.902;8.162;2023-11-21T06:09:46;91329.06;;;9.28;100.00
7660;BME280;3872;47.902;8.162;2023-11-21T06:12:15;91323.19;;;9.31;100.00
7660;BME280;3872;47.902;8.162;2023-11-21T06:14:42;91326.97;;;9.38;100.00
7660;BME280;3872;47.902;8.162;2023-11-21T06:17:08;91331.13;;;9.62;98.72
7660;BME280;3872;47.902;8.162;2023-11-21T06:19:35;91339.09;;;9.48;98.50
7660;BME280;3872;47.902;8.162;2023-11-21T06:22:02;91335.59;;;9.61;98.79
7660;BME280;3872;47.902;8.162;2023-11-21T06:24:30;91337.53;;;10.09;92.81
7660;BME280;3872;47.902;8.162;2023-11-21T06:26:56;91336.31;;;9.31;100.00
7660;BME280;3872;47.902;8.162;2023-11-21T06:29:24;91343.66;;;9.87;95.76
7660;BME280;3872;47.902;8.162;2023-11-21T06:31:52;91349.19;;;8.47;100.00
7660;BME280;3872;47.902;8.162;2023-11-21T06:34:20;91350.56;;;8.17;100.00
7660;BME280;3872;47.902;8.162;2023-11-21T06:36:46;91366.06;;;8.27;100.00
7660;BME280;3872;47.902;8.162;2023-11-21T06:39:13;91369.31;;;8.38;100.00
7660;BME280;3872;47.902;8.162;2023-11-21T06:41:43;91363.56;;;8.49;100.00
7660;BME280;3872;47.902;8.162;2023-11-21T06:44:09;91375.47;;;7.55;100.00
7660;BME280;3872;47.902;8.162;2023-11-21T06:46:36;91368.41;;;8.56;100.00
7660;BME280;3872;47.902;8.162;2023-11-21T06:49:03;91366.84;;;8.55;100.00
7660;BME280;3872;47.902;8.162;2023-11-21T06:51:31;91364.72;;;8.30;100.00
7660;BME280;3872;47.902;8.162;2023-11-21T06:53:58;91369.75;;;8.81;100.00
7660;BME280;3872;47.902;8.162;2023-11-21T06:56:24;91373.38;;;8.44;100.00
7660;BME280;3872;47.902;8.162;2023-11-21T06:58:52;91369.09;;;8.48;100.00
7660;BME280;3872;47.902;8.162;2023-11-21T07:01:19;91375.19;;;9.20;100.00
7660;BME280;3872;47.902;8.162;2023-11-21T07:03:46;91369.94;;;8.71;100.00
7660;BME280;3872;47.902;8.162;2023-11-21T07:06:12;91373.53;;;8.75;100.00
7660;BME280;3872;47.902;8.162;2023-11-21T07:08:39;91386.75;;;8.70;100.00
7660;BME280;3872;47.902;8.162;2023-11-21T07:11:06;91384.22;;;8.78;100.00
7660;BME280;3872;47.902;8.162;2023-11-21T07:13:32;91382.22;;;8.97;100.00
7660;BME280;3872;47.902;8.162;2023-11-21T07:16:00;91390.81;;;8.76;100.00
7660;BME280;3872;47.902;8.162;2023-11-21T07:18:27;91403.47;;;7.73;100.00
7660;BME280;3872;47.902;8.162;2023-11-21T07:20:53;91389.75;;;9.26;100.00
7660;BME280;3872;47.902;8.162;2023-11-21T07:23:20;91397.78;;;7.33;100.00
7660;BME280;3872;47.902;8.162;2023-11-21T07:25:48;91401.97;;;8.26;100.00
7660;BME280;3872;47.902;8.162;2023-11-21T07:28:14;91398.31;;;8.55;100.00
7660;BME280;3872;47.902;8.162;2023-11-21T07:30:41;91386.88;;;9.81;97.29
7660;BME280;3872;47.902;8.162;2023-11-21T07:33:09;91390.47;;;10.16;91.98
7660;BME280;3872;47.902;8.162;2023-11-21T07:35:36;91385.78;;;9.51;98.31
7660;BME280;3872;47.902;8.162;2023-11-21T07:38:02;91392.72;;;9.33;100.00
7660;BME280;3872;47.902;8.162;2023-11-21T07:40:29;91396.56;;;9.72;95.10
7660;BME280;3872;47.902;8.162;2023-11-21T07:42:55;91396.56;;;9.50;96.29
7660;BME280;3872;47.902;8.162;2023-11-21T07:45:22;91399.03;;;8.96;100.00
7660;BME280;3872;47.902;8.162;2023-11-21T07:47:49;91402.00;;;9.17;100.00
7660;BME280;3872;47.902;8.162;2023-11-21T07:50:17;91394.31;;;9.79;93.22
7660;BME280;3872;47.902;8.162;2023-11-21T07:52:44;91393.34;;;9.75;90.62
7660;BME280;3872;47.902;8.162;2023-11-21T07:55:10;91391.13;;;9.46;96.16
7660;BME280;3872;47.902;8.162;2023-11-21T07:57:37;91393.41;;;10.14;88.07
7660;BME280;3872;47.902;8.162;2023-11-21T08:00:05;91397.34;;;10.03;90.82
7660;BME280;3872;47.902;8.162;2023-11-21T08:02:38;91389.31;;;10.22;88.31
7660;BME280;3872;47.902;8.162;2023-11-21T08:05:05;91401.84;;;10.25;86.70
7660;BME280;3872;47.902;8.162;2023-11-21T08:07:33;91402.47;;;10.22;86.15
7660;BME280;3872;47.902;8.162;2023-11-21T08:10:00;91411.66;;;8.45;100.00
7660;BME280;3872;47.902;8.162;2023-11-21T08:12:27;91419.19;;;9.37;98.86
7660;BME280;3872;47.902;8.162;2023-11-21T08:14:53;91412.19;;;10.22;86.68
7660;BME280;3872;47.902;8.162;2023-11-21T08:17:20;91418.81;;;9.97;90.68
7660;BME280;3872;47.902;8.162;2023-11-21T08:19:46;91418.81;;;9.74;94.95
7660;BME280;3872;47.902;8.162;2023-11-21T08:22:14;91428.22;;;10.42;86.15
7660;BME280;3872;47.902;8.162;2023-11-21T08:24:42;91429.34;;;10.19;87.35
7660;BME280;3872;47.902;8.162;2023-11-21T08:27:09;91430.47;;;10.04;91.85
7660;BME280;3872;47.902;8.162;2023-11-21T08:29:36;91429.72;;;10.35;81.99
7660;BME280;3872;47.902;8.162;2023-11-21T08:32:05;91429.31;;;9.52;87.89
7660;BME280;3872;47.902;8.162;2023-11-21T08:34:31;91423.56;;;10.39;80.99
7660;BME280;3872;47.902;8.162;2023-11-21T08:36:58;91422.81;;;10.87;77.10
7660;BME280;3872;47.902;8.162;2023-11-21T08:39:25;91438.59;;;9.14;92.41
7660;BME280;3872;47.902;8.162;2023-11-21T08:41:53;91440.50;;;8.45;100.00
7660;BME280;3872;47.902;8.162;2023-11-21T08:44:20;91436.63;;;9.77;90.64
7660;BME280;3872;47.902;8.162;2023-11-21T08:46:48;91446.44;;;9.27;95.09
7660;BME280;3872;47.902;8.162;2023-11-21T08:49:14;91442.13;;;9.67;86.85
7660;BME280;3872;47.902;8.162;2023-11-21T08:51:44;91444.75;;;9.67;88.66
7660;BME280;3872;47.902;8.162;2023-11-21T08:54:11;91446.59;;;9.89;88.70
7660;BME280;3872;47.902;8.162;2023-11-21T08:56:37;91448.66;;;8.57;99.67
7660;BME280;3872;47.902;8.162;2023-11-21T08:59:05;91462.66;;;8.20;100.00
7660;BME280;3872;47.902;8.162;2023-11-21T09:01:33;91457.00;;;8.45;100.00
7660;BME280;3872;47.902;8.162;2023-11-21T09:03:59;91446.94;;;9.16;100.00
7660;BME280;3872;47.902;8.162;2023-11-21T09:06:26;91440.25;;;10.12;91.30
7660;BME280;3872;47.902;8.162;2023-11-21T09:08:52;91449.91;;;9.72;96.61
7660;BME280;3872;47.902;8.162;2023-11-21T09:11:19;91450.97;;;9.94;93.12
7660;BME280;3872;47.902;8.162;2023-11-21T09:13:45;91457.00;;;8.73;100.00
7660;BME280;3872;47.902;8.162;2023-11-21T09:16:14;91442.06;;;9.59;100.00
7660;BME280;3872;47.902;8.162;2023-11-21T09:18:41;91451.91;;;9.75;100.00
7660;BME280;3872;47.902;8.162;2023-11-21T09:21:08;91451.31;;;10.01;96.24
7660;BME280;3872;47.902;8.162;2023-11-21T09:23:35;91450.97;;;9.71;100.00
7660;BME280;3872;47.902;8.162;2023-11-21T09:26:02;91450.38;;;10.19;94.24
7660;BME280;3872;47.902;8.162;2023-11-21T09:28:28;91449.41;;;9.93;99.99
7660;BME280;3872;47.902;8.162;2023-11-21T09:30:55;91446.44;;;10.08;95.21
7660;BME280;3872;47.902;8.162;2023-11-21T09:33:23;91459.13;;;9.48;100.00
7660;BME280;3872;47.902;8.162;2023-11-21T09:35:50;91466.69;;;9.13;100.00
7660;BME280;3872;47.902;8.162;2023-11-21T09:38:17;91460.94;;;9.11;100.00
7660;BME280;3872;47.902;8.162;2023-11-21T09:40:44;91464.94;;;10.25;98.95
7660;BME280;3872;47.902;8.162;2023-11-21T09:43:16;91462.19;;;10.61;90.66
7660;BME280;3872;47.902;8.162;2023-11-21T09:45:45;91465.66;;;9.72;97.50
7660;BME280;3872;47.902;8.162;2023-11-21T09:48:12;91478.66;;;8.51;100.00
7660;BME280;3872;47.902;8.162;2023-11-21T09:50:42;91481.09;;;9.02;100.00
7660;BME280;3872;47.902;8.162;2023-11-21T09:53:13;91470.03;;;9.99;100.00
7660;BME280;3872;47.902;8.162;2023-11-21T09:55:42;91485.75;;;8.78;100.00
7660;BME280;3872;47.902;8.162;2023-11-21T09:58:09;91476.88;;;9.64;100.00
7660;BME280;3872;47.902;8.162;2023-11-21T10:00:40;91469.09;;;9.59;100.00
7660;BME280;3872;47.902;8.162;2023-11-21T10:03:07;91478.69;;;10.00;96.44
7660;BME280;3872;47.902;8.162;2023-11-21T10:05:34;91478.88;;;10.26;96.29
7660;BME280;3872;47.902;8.162;2023-11-21T10:08:02;91476.25;;;10.56;91.96
7660;BME280;3872;47.902;8.162;2023-11-21T10:10:31;91476.28;;;10.34;95.98
7660;BME280;3872;47.902;8.162;2023-11-21T10:13:02;91478.63;;;10.36;95.55
7660;BME280;3872;47.902;8.162;2023-11-21T10:15:33;91470.16;;;11.35;84.79
7660;BME280;3872;47.902;8.162;2023-11-21T10:18:03;91475.63;;;10.90;83.93
7660;BME280;3872;47.902;8.162;2023-11-21T10:20:31;91484.66;;;9.92;95.60
7660;BME280;3872;47.902;8.162;2023-11-21T10:22:59;91487.03;;;9.79;100.00
7660;BME280;3872;47.902;8.162;2023-11-21T10:25:28;91490.88;;;9.10;100.00
7660;BME280;3872;47.902;8.162;2023-11-21T10:27:57;91485.59;;;9.96;99.09
7660;BME280;3872;47.902;8.162;2023-11-21T10:30:28;91489.91;;;10.58;91.22
7660;BME280;3872;47.902;8.162;2023-11-21T10:32:59;91483.06;;;10.97;85.08
7660;BME280;3872;47.902;8.162;2023-11-21T10:35:38;91484.59;;;10.89;84.46
7660;BME280;3872;47.902;8.162;2023-11-21T10:38:04;91496.72;;;8.20;100.00
7660;BME280;3872;47.902;8.162;2023-11-21T10:40:32;91497.84;;;9.42;100.00
7660;BME280;3872;47.902;8.162;2023-11-21T10:43:06;91491.66;;;8.56;100.00
7660;BME280;3872;47.902;8.162;2023-11-21T10:45:34;91491.50;;;8.93;100.00
7660;BME280;3872;47.902;8.162;2023-11-21T10:48:05;91499.75;;;9.00;100.00
7660;BME280;3872;47.902;8.162;2023-11-21T10:50:32;91481.06;;;10.32;98.07
7660;BME280;3872;47.902;8.162;2023-11-21T10:53:01;91484.47;;;8.89;100.00
7660;BME280;3872;47.902;8.162;2023-11-21T10:55:27;91485.38;;;8.84;100.00
7660;BME280;3872;47.902;8.162;2023-11-21T10:57:58;91482.47;;;9.49;100.00
7660;BME280;3872;47.902;8.162;2023-11-21T11:00:25;91498.00;;;8.82;100.00
7660;BME280;3872;47.902;8.162;2023-11-21T11:02:53;91499.34;;;8.52;100.00
7660;BME280;3872;47.902;8.162;2023-11-21T11:05:22;91491.91;;;9.50;100.00
7660;BME280;3872;47.902;8.162;2023-11-21T11:07:51;91495.75;;;9.89;100.00
7660;BME280;3872;47.902;8.162;2023-11-21T11:10:19;91492.53;;;10.67;91.97
7660;BME280;3872;47.902;8.162;2023-11-21T11:12:48;91483.88;;;11.06;85.81
7660;BME280;3872;47.902;8.162;2023-11-21T11:15:16;91486.94;;;9.49;100.00
7660;BME280;3872;47.902;8.162;2023-11-21T11:17:43;91490.00;;;10.84;90.30
7660;BME280;3872;47.902;8.162;2023-11-21T11:20:12;91484.13;;;11.35;84.40
7660;BME280;3872;47.902;8.162;2023-11-21T11:22:45;91481.47;;;11.35;83.67
7660;BME280;3872;47.902;8.162;2023-11-21T11:25:33;91484.13;;;11.35;82.98
7660;BME280;3872;47.902;8.162;2023-11-21T11:28:04;91489.53;;;10.20;91.42
7660;BME280;3872;47.902;8.162;2023-11-21T11:30:41;91489.13;;;10.58;94.59
7660;BME280;3872;47.902;8.162;2023-11-21T11:33:18;91494.66;;;8.36;100.00
7660;BME280;3872;47.902;8.162;2023-11-21T11:35:56;91494.69;;;8.90;100.00
7660;BME280;3872;47.902;8.162;2023-11-21T11:38:27;91480.66;;;9.94;100.00
7660;BME280;3872;47.902;8.162;2023-11-21T11:40:53;91483.56;;;10.68;95.68
7660;BME280;3872;47.902;8.162;2023-11-21T11:43:25;91483.78;;;9.60;100.00
7660;BME280;3872;47.902;8.162;2023-11-21T11:45:55;91484.78;;;9.87;100.00
7660;BME280;3872;47.902;8.162;2023-11-21T11:48:22;91488.13;;;9.78;100.00
7660;BME280;3872;47.902;8.162;2023-11-21T11:51:02;91492.19;;;10.60;98.60
7660;BME280;3872;47.902;8.162;2023-11-21T11:53:35;91488.31;;;11.36;89.09
7660;BME280;3872;47.902;8.162;2023-11-21T11:56:27;91488.63;;;11.61;84.68
7660;BME280;3872;47.902;8.162;2023-11-21T11:58:58;91491.31;;;9.75;100.00
7660;BME280;3872;47.902;8.162;2023-11-21T12:01:30;91496.19;;;9.32;100.00
7660;BME280;3872;47.902;8.162;2023-11-21T12:04:23;91490.16;;;10.88;97.85
7660;BME280;3872;47.902;8.162;2023-11-21T12:06:56;91490.72;;;10.45;100.00
7660;BME280;3872;47.902;8.162;2023-11-21T12:09:25;91492.38;;;10.64;100.00
7660;BME280;3872;47.902;8.162;2023-11-21T12:11:52;91489.97;;;10.76;96.40
7660;BME280;3872;47.902;8.162;2023-11-21T12:14:20;91488.25;;;10.71;95.12
7660;BME280;3872;47.902;8.162;2023-11-21T12:16:48;91490.97;;;10.57;97.39
7660;BME280;3872;47.902;8.162;2023-11-21T12:19:15;91498.38;;;10.11;100.00
7660;BME280;3872;47.902;8.162;2023-11-21T12:21:41;91501.22;;;10.68;98.87
7660;BME280;3872;47.902;8.162;2023-11-21T12:24:09;91490.06;;;11.10;92.25
7660;BME280;3872;47.902;8.162;2023-11-21T12:26:39;91501.88;;;9.62;100.00
7660;BME280;3872;47.902;8.162;2023-11-21T12:29:05;91495.41;;;10.48;100.00
7660;BME280;3872;47.902;8.162;2023-11-21T12:31:33;91491.44;;;11.56;88.44
7660;BME280;3872;47.902;8.162;2023-11-21T12:34:01;91490.72;;;11.24;93.42
7660;BME280;3872;47.902;8.162;2023-11-21T12:36:29;91497.13;;;10.84;97.90
7660;BME280;3872;47.902;8.162;2023-11-21T12:38:55;91500.81;;;10.52;100.00
7660;BME280;3872;47.902;8.162;2023-11-21T12:41:22;91495.44;;;10.96;98.61
7660;BME280;3872;47.902;8.162;2023-11-21T12:43:48;91501.75;;;10.47;100.00
7660;BME280;3872;47.902;8.162;2023-11-21T12:46:15;91500.50;;;11.15;91.54
7660;BME280;3872;47.902;8.162;2023-11-21T12:48:43;91495.50;;;11.05;96.36
7660;BME280;3872;47.902;8.162;2023-11-21T12:51:12;91508.53;;;10.71;98.68
7660;BME280;3872;47.902;8.162;2023-11-21T12:53:39;91503.47;;;11.39;92.59
7660;BME280;3872;47.902;8.162;2023-11-21T12:56:07;91496.06;;;11.59;90.43
7660;BME280;3872;47.902;8.162;2023-11-21T12:58:35;91501.03;;;10.33;100.00
7660;BME280;3872;47.902;8.162;2023-11-21T13:01:01;91504.06;;;10.04;100.00
7660;BME280;3872;47.902;8.162;2023-11-21T13:03:29;91508.31;;;9.92;100.00
7660;BME280;3872;47.902;8.162;2023-11-21T13:05:56;91513.16;;;8.85;100.00
7660;BME280;3872;47.902;8.162;2023-11-21T13:08:25;91499.97;;;10.65;100.00
7660;BME280;3872;47.902;8.162;2023-11-21T13:10:55;91489.72;;;11.68;91.04
7660;BME280;3872;47.902;8.162;2023-11-21T13:13:23;91496.28;;;11.06;94.78
7660;BME280;3872;47.902;8.162;2023-11-21T13:15:51;91495.81;;;11.77;87.15
7660;BME280;3872;47.902;8.162;2023-11-21T13:18:19;91508.41;;;10.53;100.00
7660;BME280;3872;47.902;8.162;2023-11-21T13:20:47;91498.28;;;11.09;100.00
7660;BME280;3872;47.902;8.162;2023-11-21T13:23:13;91509.31;;;11.76;91.43
7660;BME280;3872;47.902;8.162;2023-11-21T13:25:43;91509.09;;;10.98;100.00
7660;BME280;3872;47.902;8.162;2023-11-21T13:28:11;91511.31;;;11.88;88.72